Time;durP1;ratioP1;P1;durP2;ratioP2;P2;SDS_P1;SDS_P2;PMS_P1;PMS_P2;Temp;Humidity;BMP_temperature;BMP_pressure;BME280_temperature;BME280_humidity;BME280_pressure;Samples;Min_cycle;Max_cycle;Signal;HPM_P1;HPM_P2
2021/09/05 00:02:25;;;;;;;28.38;20.55;;;23.10;99.70;;;;;;4879028;29;20540;-86
2021/09/05 00:04:51;;;;;;;26.55;20.80;;;23.20;99.70;;;;;;4862950;29;20116;-85
2021/09/05 00:07:17;;;;;;;23.90;19.52;;;23.10;99.70;;;;;;4879534;29;20037;-85
2021/09/05 00:09:42;;;;;;;25.38;19.88;;;23.10;99.80;;;;;;4862410;29;20440;-84
2021/09/05 00:12:09;;;;;;;26.73;20.05;;;23.10;99.80;;;;;;4862857;29;20444;-85
2021/09/05 00:14:35;;;;;;;27.27;21.00;;;23.20;99.80;;;;;;4878822;29;20033;-85
2021/09/05 00:17:00;;;;;;;26.73;20.83;;;23.10;99.80;;;;;;4862649;29;20036;-85
2021/09/05 00:19:27;;;;;;;25.45;21.05;;;23.10;99.80;;;;;;4879094;29;20096;-84
2021/09/05 00:21:53;;;;;;;27.33;22.20;;;23.10;99.80;;;;;;4879349;29;20033;-85
2021/09/05 00:24:19;;;;;;;29.05;22.33;;;23.20;99.90;;;;;;4846963;29;20041;-85
2021/09/05 00:26:46;;;;;;;26.15;21.45;;;23.20;99.90;;;;;;4878570;29;20133;-84
2021/09/05 00:29:15;;;;;;;29.92;22.52;;;23.20;99.90;;;;;;4879302;29;20035;-84
2021/09/05 00:31:41;;;;;;;29.42;23.30;;;23.20;99.90;;;;;;4862514;29;20037;-84
2021/09/05 00:34:06;;;;;;;29.85;23.05;;;23.20;99.90;;;;;;4880154;29;20117;-84
2021/09/05 00:36:32;;;;;;;27.52;22.50;;;23.20;99.90;;;;;;4850540;29;20476;-84
2021/09/05 00:38:58;;;;;;;28.67;23.27;;;23.20;99.90;;;;;;4866465;29;20037;-85
2021/09/05 00:41:23;;;;;;;32.90;24.95;;;23.20;99.90;;;;;;4866120;29;20037;-84
2021/09/05 00:43:54;;;;;;;30.35;24.05;;;23.20;99.90;;;;;;4865934;29;20140;-84
2021/09/05 00:46:20;;;;;;;31.20;25.27;;;23.20;99.90;;;;;;4883001;29;20085;-84
2021/09/05 00:48:46;;;;;;;32.38;24.88;;;23.20;99.90;;;;;;4865962;29;20041;-84
2021/09/05 00:51:12;;;;;;;31.65;25.23;;;23.20;99.90;;;;;;4850819;29;20041;-84
2021/09/05 00:53:37;;;;;;;35.75;26.48;;;23.20;99.90;;;;;;4865618;29;20036;-84
2021/09/05 00:56:04;;;;;;;33.83;25.92;;;23.20;99.90;;;;;;4882829;29;20029;-85
2021/09/05 00:58:30;;;;;;;33.40;26.40;;;23.20;99.90;;;;;;4882798;29;20057;-84
2021/09/05 01:00:58;;;;;;;36.53;27.38;;;23.20;99.90;;;;;;4866275;29;20037;-84
2021/09/05 01:03:23;;;;;;;35.08;27.55;;;23.20;99.90;;;;;;4882701;29;20056;-85
2021/09/05 01:05:49;;;;;;;36.38;27.90;;;23.20;99.90;;;;;;4865681;29;20033;-85
2021/09/05 01:08:15;;;;;;;35.03;27.58;;;23.20;99.90;;;;;;4865858;29;20605;-85
2021/09/05 01:10:40;;;;;;;36.45;28.65;;;23.20;99.90;;;;;;4865626;29;20507;-85
2021/09/05 01:13:06;;;;;;;34.03;27.00;;;23.20;99.90;;;;;;4865949;29;20165;-85
2021/09/05 01:15:32;;;;;;;35.38;28.30;;;23.20;99.90;;;;;;4865705;29;20037;-84
2021/09/05 01:17:58;;;;;;;37.08;28.10;;;23.20;99.90;;;;;;4865469;29;20045;-84
2021/09/05 01:20:23;;;;;;;34.45;27.98;;;23.20;99.90;;;;;;4865647;29;20119;-84
2021/09/05 01:22:49;;;;;;;38.05;29.45;;;23.20;99.90;;;;;;4881691;29;20049;-84
2021/09/05 01:25:15;;;;;;;33.63;28.13;;;23.20;99.90;;;;;;4865620;29;20041;-84
2021/09/05 01:27:40;;;;;;;35.72;27.83;;;23.20;99.90;;;;;;4864797;29;20105;-83
2021/09/05 01:30:07;;;;;;;37.22;29.60;;;23.20;99.90;;;;;;4881861;29;20502;-83
2021/09/05 01:32:32;;;;;;;35.10;28.88;;;23.20;99.90;;;;;;4865461;29;20117;-83
2021/09/05 01:34:58;;;;;;;35.25;29.23;;;23.20;99.90;;;;;;4864771;29;20480;-82
2021/09/05 01:37:24;;;;;;;37.20;29.52;;;23.20;99.90;;;;;;4882162;29;20037;-84
2021/09/05 01:39:49;;;;;;;36.95;28.83;;;23.20;99.90;;;;;;4849613;29;20029;-84
2021/09/05 01:42:15;;;;;;;37.70;29.40;;;23.20;99.90;;;;;;4881467;29;20076;-84
2021/09/05 01:44:42;;;;;;;34.60;28.08;;;23.20;99.90;;;;;;4881669;29;20495;-84
2021/09/05 01:47:08;;;;;;;36.13;29.02;;;23.20;99.90;;;;;;4864306;29;20052;-84
2021/09/05 01:49:33;;;;;;;37.22;29.42;;;23.20;99.90;;;;;;4864927;29;20041;-84
2021/09/05 01:51:59;;;;;;;38.70;29.25;;;23.20;99.90;;;;;;4864791;29;20380;-84
2021/09/05 01:54:24;;;;;;;36.85;28.52;;;23.20;99.90;;;;;;4865125;29;20033;-83
2021/09/05 01:56:50;;;;;;;35.22;28.88;;;23.20;99.90;;;;;;4864457;29;20393;-85
2021/09/05 01:59:16;;;;;;;37.88;29.02;;;23.20;99.90;;;;;;4849883;29;20033;-84
2021/09/05 02:01:41;;;;;;;37.40;28.50;;;23.20;99.90;;;;;;4849176;29;20033;-85
2021/09/05 02:04:07;;;;;;;35.10;28.63;;;23.20;99.90;;;;;;4849505;29;20045;-84
2021/09/05 02:06:33;;;;;;;35.75;29.38;;;23.20;99.90;;;;;;4864612;29;20497;-84
2021/09/05 02:08:59;;;;;;;33.72;27.13;;;23.20;99.90;;;;;;4881216;29;20117;-84
2021/09/05 02:11:25;;;;;;;35.08;28.85;;;23.20;99.90;;;;;;4864643;29;20108;-84
2021/09/05 02:13:52;;;;;;;36.40;28.65;;;23.20;99.90;;;;;;4865878;29;20507;-85
2021/09/05 02:16:18;;;;;;;37.38;28.55;;;23.20;99.90;;;;;;4864692;29;20036;-84
2021/09/05 02:18:44;;;;;;;35.90;27.98;;;23.20;99.90;;;;;;4865308;29;20067;-84
2021/09/05 02:21:10;;;;;;;35.05;27.52;;;23.20;99.90;;;;;;4865190;29;20029;-84
2021/09/05 02:23:36;;;;;;;34.08;27.25;;;23.20;99.90;;;;;;4881048;29;20128;-84
2021/09/05 02:26:01;;;;;;;33.13;27.88;;;23.20;99.90;;;;;;4863923;29;20052;-84
2021/09/05 02:28:27;;;;;;;33.28;26.73;;;23.20;99.90;;;;;;4864473;29;20037;-84
2021/09/05 02:30:53;;;;;;;34.95;28.92;;;23.20;99.90;;;;;;4880548;29;20488;-84
2021/09/05 02:33:18;;;;;;;35.38;28.45;;;23.20;99.90;;;;;;4864277;29;20037;-84
2021/09/05 02:35:44;;;;;;;33.10;26.55;;;23.20;99.90;;;;;;4864462;29;20052;-85
2021/09/05 02:38:11;;;;;;;32.78;27.83;;;23.20;99.90;;;;;;4880726;29;20037;-84
2021/09/05 02:40:37;;;;;;;33.08;26.52;;;23.20;99.90;;;;;;4880723;29;20088;-85
2021/09/05 02:43:04;;;;;;;35.28;27.83;;;23.20;99.90;;;;;;4880393;29;20591;-85
2021/09/05 02:45:29;;;;;;;31.98;26.33;;;23.20;99.90;;;;;;4880903;29;20025;-85
2021/09/05 02:47:55;;;;;;;33.28;27.88;;;23.20;99.90;;;;;;4880524;29;20040;-84
2021/09/05 02:50:21;;;;;;;35.38;28.02;;;23.20;99.90;;;;;;4864189;29;20029;-84
2021/09/05 02:52:47;;;;;;;33.50;27.48;;;23.20;99.90;;;;;;4863865;29;20037;-84
2021/09/05 02:55:12;;;;;;;33.42;26.38;;;23.20;99.90;;;;;;4880920;29;20491;-85
2021/09/05 02:57:38;;;;;;;33.90;28.23;;;23.30;99.90;;;;;;4863088;29;20037;-84
2021/09/05 03:00:04;;;;;;;34.95;26.83;;;23.20;99.90;;;;;;4863422;29;20048;-84
2021/09/05 03:02:30;;;;;;;34.50;27.40;;;23.30;99.90;;;;;;4863561;29;20048;-84
2021/09/05 03:04:56;;;;;;;34.90;27.42;;;23.20;99.90;;;;;;4880320;29;20029;-84
2021/09/05 03:07:21;;;;;;;33.83;26.83;;;23.20;99.90;;;;;;4848438;29;20037;-84
2021/09/05 03:09:47;;;;;;;32.72;25.85;;;23.20;99.90;;;;;;4879895;29;20051;-85
2021/09/05 03:12:12;;;;;;;32.83;26.63;;;23.20;99.90;;;;;;4848167;29;20033;-85
2021/09/05 03:14:38;;;;;;;34.60;27.13;;;23.20;99.90;;;;;;4863739;29;20096;-85
2021/09/05 03:17:04;;;;;;;34.70;27.50;;;23.20;99.90;;;;;;4863243;29;20041;-85
2021/09/05 03:19:36;;;;;;;36.42;27.58;;;23.20;99.90;;;;;;5070520;28;20961;-83
2021/09/05 03:22:02;;;;;;;33.33;26.65;;;23.30;99.90;;;;;;5068921;28;20051;-84
2021/09/05 03:24:27;;;;;;;32.38;26.27;;;23.30;99.90;;;;;;5069344;28;20366;-84
2021/09/05 03:26:53;;;;;;;31.13;25.98;;;23.20;99.90;;;;;;5068925;28;20463;-83
2021/09/05 03:29:19;;;;;;;31.38;25.63;;;23.30;99.90;;;;;;5069530;28;20047;-83
2021/09/05 03:31:44;;;;;;;32.03;26.35;;;23.20;99.90;;;;;;5069167;28;20027;-84
2021/09/05 03:34:10;;;;;;;31.50;26.23;;;23.20;99.90;;;;;;5069729;28;20064;-83
2021/09/05 03:36:35;;;;;;;32.42;26.52;;;23.20;99.90;;;;;;5068995;28;20021;-83
2021/09/05 03:39:01;;;;;;;28.65;24.08;;;23.20;99.90;;;;;;5068440;28;20467;-84
2021/09/05 03:41:27;;;;;;;29.92;24.27;;;23.20;99.90;;;;;;5070183;28;20024;-84
2021/09/05 03:43:52;;;;;;;30.02;25.58;;;23.30;99.90;;;;;;5068328;28;20033;-84
2021/09/05 03:46:18;;;;;;;29.60;24.00;;;23.20;99.90;;;;;;5068593;28;20154;-85
2021/09/05 03:48:43;;;;;;;32.08;24.48;;;23.20;99.90;;;;;;5068770;28;20032;-83
2021/09/05 03:51:09;;;;;;;27.65;23.08;;;23.20;99.90;;;;;;5069494;28;20451;-83
2021/09/05 03:53:35;;;;;;;30.30;24.67;;;23.20;99.90;;;;;;5069997;28;20029;-84
2021/09/05 03:56:00;;;;;;;28.65;23.88;;;23.20;99.90;;;;;;5068533;28;20021;-84
2021/09/05 03:58:26;;;;;;;28.40;23.42;;;23.20;99.90;;;;;;5068328;28;20020;-83
2021/09/05 04:00:52;;;;;;;29.10;22.98;;;23.20;99.90;;;;;;5070040;28;20029;-89
2021/09/05 04:03:18;;;;;;;27.80;22.60;;;23.20;99.90;;;;;;5068450;28;20028;-83
2021/09/05 04:05:44;;;;;;;29.38;23.45;;;23.20;99.90;;;;;;5068564;28;20024;-84
2021/09/05 04:10:36;;;;;;;27.80;22.40;;;23.20;99.90;;;;;;5069696;28;20025;-84
2021/09/05 04:13:04;;;;;;;26.35;21.23;;;23.20;99.90;;;;;;5069051;28;20029;-84
2021/09/05 04:15:30;;;;;;;26.92;22.40;;;23.20;99.90;;;;;;5068347;28;20044;-83
2021/09/05 04:17:56;;;;;;;26.60;21.98;;;23.20;99.90;;;;;;5067302;28;20048;-84
2021/09/05 04:20:22;;;;;;;27.45;22.48;;;23.20;99.90;;;;;;5069137;28;20054;-83
2021/09/05 04:22:48;;;;;;;25.25;21.33;;;23.20;99.90;;;;;;5069135;28;20036;-83
2021/09/05 04:25:15;;;;;;;26.95;22.00;;;23.20;99.90;;;;;;5067721;28;20578;-83
2021/09/05 04:27:41;;;;;;;28.20;21.92;;;23.20;99.90;;;;;;5067858;28;20462;-83
2021/09/05 04:30:08;;;;;;;28.88;21.95;;;23.20;99.90;;;;;;5060252;28;20025;-84
2021/09/05 04:32:35;;;;;;;26.45;20.35;;;23.20;99.90;;;;;;5054710;28;20021;-84
2021/09/05 04:35:00;;;;;;;25.40;20.42;;;23.20;99.90;;;;;;5054209;28;20474;-84
2021/09/05 04:37:26;;;;;;;24.85;20.38;;;23.20;99.90;;;;;;5054693;28;20032;-84
2021/09/05 04:39:53;;;;;;;25.73;20.90;;;23.20;99.90;;;;;;5055736;28;20517;-84
2021/09/05 04:42:19;;;;;;;24.35;19.05;;;23.20;99.80;;;;;;5055364;28;20025;-84
2021/09/05 04:44:45;;;;;;;24.50;19.90;;;23.20;99.90;;;;;;5055759;28;20021;-84
2021/09/05 04:47:11;;;;;;;22.55;19.10;;;23.10;99.80;;;;;;5054538;28;20028;-84
2021/09/05 04:49:37;;;;;;;24.27;18.77;;;23.20;99.80;;;;;;5054558;28;20051;-84
2021/09/05 04:52:03;;;;;;;23.17;19.00;;;23.10;99.80;;;;;;5053991;28;20471;-84
2021/09/05 04:54:29;;;;;;;23.60;18.85;;;23.10;99.80;;;;;;5055624;28;20025;-84
2021/09/05 04:56:55;;;;;;;21.38;18.23;;;23.10;99.90;;;;;;5054264;28;20036;-85
2021/09/05 04:59:21;;;;;;;23.00;18.13;;;23.10;99.80;;;;;;5037378;28;20063;-83
2021/09/05 05:01:46;;;;;;;22.35;17.83;;;23.10;99.80;;;;;;5055625;28;20402;-84
2021/09/05 05:04:12;;;;;;;22.92;17.52;;;23.10;99.80;;;;;;5054281;28;20033;-85
2021/09/05 05:06:41;;;;;;;22.33;17.77;;;23.10;99.80;;;;;;5053948;28;20025;-84
2021/09/05 05:09:12;;;;;;;21.10;17.73;;;23.10;99.90;;;;;;5055001;28;20025;-84
2021/09/05 05:11:39;;;;;;;21.63;17.23;;;23.10;99.80;;;;;;5055040;28;20052;-84
2021/09/05 05:14:04;;;;;;;23.48;17.90;;;23.10;99.80;;;;;;5055007;28;20071;-84
2021/09/05 05:16:31;;;;;;;22.52;17.80;;;23.10;99.80;;;;;;5055260;28;20025;-83
2021/09/05 05:18:56;;;;;;;21.30;16.92;;;23.10;99.80;;;;;;5053456;28;20049;-83
2021/09/05 05:21:26;;;;;;;21.65;17.08;;;23.10;99.90;;;;;;5054771;28;20033;-82
2021/09/05 05:23:51;;;;;;;20.35;16.35;;;23.10;99.90;;;;;;5054828;28;20028;-82
2021/09/05 05:26:17;;;;;;;18.70;16.48;;;23.10;99.90;;;;;;5053109;28;20036;-85
2021/09/05 05:28:43;;;;;;;22.50;17.50;;;23.10;99.90;;;;;;5054510;28;20025;-83
2021/09/05 05:31:08;;;;;;;20.10;16.88;;;23.20;99.90;;;;;;5053523;28;20035;-84
2021/09/05 05:33:34;;;;;;;19.38;15.15;;;23.10;99.90;;;;;;5054407;28;20025;-83
2021/09/05 05:36:00;;;;;;;19.40;16.17;;;23.10;99.90;;;;;;5054291;28;20041;-84
2021/09/05 05:38:25;;;;;;;19.88;16.50;;;23.10;99.90;;;;;;5054079;28;20129;-83
2021/09/05 05:40:51;;;;;;;18.42;15.43;;;23.10;99.90;;;;;;5053767;28;20032;-83
2021/09/05 05:43:16;;;;;;;19.33;15.68;;;23.20;99.90;;;;;;5052521;28;20025;-83
2021/09/05 05:45:44;;;;;;;18.60;15.45;;;23.10;99.90;;;;;;5053370;28;20078;-83
2021/09/05 05:48:10;;;;;;;19.15;15.32;;;23.20;99.90;;;;;;5052862;28;20025;-83
2021/09/05 05:50:36;;;;;;;18.45;15.30;;;23.20;99.90;;;;;;5053488;28;20158;-82
2021/09/05 05:53:01;;;;;;;18.00;14.93;;;23.20;99.90;;;;;;5054628;28;20032;-83
2021/09/05 05:55:27;;;;;;;19.08;15.15;;;23.20;99.90;;;;;;5052701;28;20348;-83
2021/09/05 05:57:53;;;;;;;17.58;14.20;;;23.20;99.90;;;;;;5053064;28;20033;-83
2021/09/05 06:00:20;;;;;;;18.05;14.48;;;23.20;99.80;;;;;;5052768;28;20040;-83
2021/09/05 06:02:46;;;;;;;20.00;15.63;;;23.20;99.90;;;;;;5053786;28;20120;-83
2021/09/05 06:05:13;;;;;;;16.73;14.60;;;23.20;99.90;;;;;;5035790;28;20182;-83
2021/09/05 06:07:39;;;;;;;17.75;14.98;;;23.20;99.90;;;;;;5052038;28;20029;-82
2021/09/05 06:10:05;;;;;;;18.35;14.93;;;23.20;99.90;;;;;;5052876;28;20075;-83
2021/09/05 06:12:31;;;;;;;18.55;14.60;;;23.20;99.90;;;;;;5049958;28;20029;-82
2021/09/05 06:14:57;;;;;;;17.60;15.05;;;23.20;99.90;;;;;;5053720;28;20036;-82
2021/09/05 06:17:22;;;;;;;17.30;15.05;;;23.20;99.90;;;;;;5052431;28;20021;-82
2021/09/05 06:19:48;;;;;;;20.00;15.70;;;23.20;99.90;;;;;;5035978;28;20244;-82
2021/09/05 06:22:13;;;;;;;20.17;16.65;;;23.20;99.80;;;;;;5052491;28;20025;-82
2021/09/05 06:24:39;;;;;;;21.77;17.70;;;23.20;99.80;;;;;;5035928;28;20036;-81
2021/09/05 06:27:05;;;;;;;23.38;18.83;;;23.20;99.80;;;;;;5052555;28;20494;-81
2021/09/05 06:29:30;;;;;;;22.17;17.98;;;23.30;99.90;;;;;;5018978;28;20379;-82
2021/09/05 06:31:56;;;;;;;25.17;20.00;;;23.20;99.80;;;;;;5053355;28;20108;-82
2021/09/05 06:34:22;;;;;;;27.50;20.67;;;23.20;99.90;;;;;;5052265;28;20025;-83
2021/09/05 06:36:47;;;;;;;29.35;23.35;;;23.20;99.80;;;;;;5035933;28;20075;-82
2021/09/05 06:39:13;;;;;;;28.85;23.08;;;23.20;99.80;;;;;;5053246;28;20078;-83
2021/09/05 06:41:39;;;;;;;27.90;22.70;;;23.20;99.90;;;;;;5053267;28;20036;-83
2021/09/05 06:44:05;;;;;;;32.60;26.02;;;23.20;99.80;;;;;;5035761;28;20055;-83
2021/09/05 06:46:31;;;;;;;31.95;25.77;;;23.20;99.80;;;;;;5051921;28;20114;-83
2021/09/05 06:48:56;;;;;;;35.08;27.67;;;23.30;99.80;;;;;;5035389;28;20033;-83
2021/09/05 06:51:22;;;;;;;36.05;26.85;;;23.30;99.70;;;;;;5051446;28;20425;-83
2021/09/05 06:53:47;;;;;;;33.08;26.75;;;23.20;99.70;;;;;;5052693;28;20029;-83
2021/09/05 06:56:13;;;;;;;36.10;27.70;;;23.30;99.70;;;;;;5051175;28;20473;-82
2021/09/05 06:58:39;;;;;;;36.33;28.05;;;23.30;99.70;;;;;;5052102;28;20049;-83
2021/09/05 07:01:04;;;;;;;35.05;29.45;;;23.20;99.70;;;;;;5051870;28;20370;-83
2021/09/05 07:03:30;;;;;;;37.75;29.88;;;23.20;99.70;;;;;;5050717;28;20402;-84
2021/09/05 07:05:56;;;;;;;37.47;31.02;;;23.30;99.70;;;;;;5035149;28;20120;-84
2021/09/05 07:08:22;;;;;;;41.17;32.30;;;23.30;99.70;;;;;;5034799;28;20029;-84
2021/09/05 07:10:48;;;;;;;41.10;32.47;;;23.30;99.70;;;;;;5051793;28;20021;-84
2021/09/05 07:13:13;;;;;;;44.67;34.55;;;23.20;99.90;;;;;;5051745;28;20025;-84
2021/09/05 07:15:39;;;;;;;43.90;35.40;;;23.20;99.80;;;;;;5051755;28;20024;-83
2021/09/05 07:18:05;;;;;;;46.72;37.30;;;23.20;99.80;;;;;;5051370;28;20123;-83
2021/09/05 07:20:31;;;;;;;46.53;35.08;;;23.30;99.90;;;;;;5053057;28;20052;-83
2021/09/05 07:22:57;;;;;;;46.13;36.63;;;23.30;99.90;;;;;;5035281;28;20525;-82
2021/09/05 07:25:25;;;;;;;47.22;37.17;;;23.30;99.90;;;;;;5051507;28;20505;-82
2021/09/05 07:27:50;;;;;;;46.88;37.13;;;23.30;99.90;;;;;;5052803;28;20021;-83
2021/09/05 07:30:16;;;;;;;49.70;38.28;;;23.30;99.90;;;;;;5051085;28;20037;-85
2021/09/05 07:32:42;;;;;;;44.85;35.80;;;23.30;99.90;;;;;;5051693;28;20147;-83
2021/09/05 07:35:09;;;;;;;47.33;37.38;;;23.40;99.90;;;;;;5053266;28;20025;-83
2021/09/05 07:37:36;;;;;;;47.15;35.60;;;23.40;99.90;;;;;;5051219;28;20489;-84
2021/09/05 07:40:02;;;;;;;44.67;36.30;;;23.40;99.90;;;;;;5051693;28;20112;-85
2021/09/05 07:42:28;;;;;;;45.47;34.67;;;23.40;99.90;;;;;;5052538;28;20459;-84
2021/09/05 07:44:53;;;;;;;46.38;35.17;;;23.40;99.90;;;;;;5052542;28;20104;-84
2021/09/05 07:47:19;;;;;;;42.22;33.53;;;23.40;99.90;;;;;;5051167;28;20033;-84
2021/09/05 07:49:45;;;;;;;43.55;34.30;;;23.40;99.90;;;;;;5050514;28;20521;-84
2021/09/05 07:52:11;;;;;;;44.53;35.97;;;23.40;99.90;;;;;;5051145;28;20029;-84
2021/09/05 07:54:37;;;;;;;45.08;36.33;;;23.50;99.90;;;;;;5052141;28;20383;-85
2021/09/05 07:57:03;;;;;;;46.78;37.40;;;23.50;99.90;;;;;;5051293;28;20108;-83
2021/09/05 07:59:28;;;;;;;45.58;36.00;;;23.50;99.90;;;;;;5052246;28;20401;-83
2021/09/05 08:01:54;;;;;;;49.17;36.95;;;23.50;99.90;;;;;;5051486;28;20079;-84
2021/09/05 08:04:19;;;;;;;45.42;34.95;;;23.50;99.90;;;;;;5050370;28;20187;-83
2021/09/05 08:06:45;;;;;;;46.28;35.63;;;23.50;99.90;;;;;;5052546;28;20112;-84
2021/09/05 08:09:11;;;;;;;45.83;34.55;;;23.50;99.90;;;;;;5056135;28;20029;-84
2021/09/05 08:11:36;;;;;;;42.38;32.92;;;23.50;99.90;;;;;;5054028;28;20025;-83
2021/09/05 08:14:02;;;;;;;39.47;30.50;;;23.50;99.90;;;;;;5038110;28;20024;-84
2021/09/05 08:16:28;;;;;;;39.58;30.70;;;23.60;99.70;;;;;;5053960;28;20030;-84
2021/09/05 08:18:53;;;;;;;34.63;26.58;;;23.60;99.60;;;;;;5037848;28;20499;-84
2021/09/05 08:21:22;;;;;;;31.58;26.20;;;23.60;99.50;;;;;;5037999;28;20095;-83
2021/09/05 08:23:48;;;;;;;34.85;25.20;;;23.50;99.40;;;;;;5038347;28;20029;-83
2021/09/05 08:26:14;;;;;;;30.52;24.38;;;23.50;99.30;;;;;;5055946;28;20102;-84
2021/09/05 08:28:40;;;;;;;29.63;23.30;;;23.50;99.30;;;;;;5050977;28;20043;-83
2021/09/05 08:31:06;;;;;;;26.35;20.92;;;23.50;99.20;;;;;;5055868;28;20441;-83
2021/09/05 08:33:32;;;;;;;28.85;20.92;;;23.50;99.10;;;;;;5054965;28;20021;-83
2021/09/05 08:35:58;;;;;;;24.20;19.10;;;23.50;99.10;;;;;;5052734;28;20021;-84
2021/09/05 08:39:07;;;;;;;25.27;18.80;;;23.50;99.00;;;;;;5037192;28;20127;-83
2021/09/05 08:41:49;;;;;;;22.73;17.23;;;23.50;98.90;;;;;;5042049;28;20029;-83
2021/09/05 08:44:17;;;;;;;26.55;16.48;;;23.50;98.90;;;;;;5055379;28;20017;-81
2021/09/05 08:46:53;;;;;;;;;;;;;;;;;;;;;
2021/09/05 08:49:28;;;;;;;22.25;16.00;;;23.50;98.80;;;;;;5056265;28;20024;-82
2021/09/05 08:51:58;;;;;;;20.30;14.85;;;23.50;98.70;;;;;;5054844;28;20398;-83
2021/09/05 08:54:23;;;;;;;19.17;14.55;;;23.60;98.60;;;;;;5054486;28;20053;-83
2021/09/05 08:56:51;;;;;;;18.25;13.77;;;23.60;98.50;;;;;;5054881;28;20049;-83
2021/09/05 08:59:17;;;;;;;19.42;13.65;;;23.60;98.30;;;;;;5055054;28;20029;-83
2021/09/05 09:01:59;;;;;;;16.00;12.40;;;23.60;98.20;;;;;;5054962;28;20379;-83
2021/09/05 09:04:26;;;;;;;15.13;11.75;;;23.50;98.10;;;;;;5055459;28;20033;-83
2021/09/05 09:06:52;;;;;;;14.02;11.43;;;23.60;98.00;;;;;;5054953;28;20033;-83
2021/09/05 09:09:20;;;;;;;16.25;11.75;;;23.50;97.90;;;;;;5037486;28;20029;-83
2021/09/05 09:11:50;;;;;;;15.60;11.35;;;23.50;97.80;;;;;;5037440;28;20052;-82
2021/09/05 09:14:15;;;;;;;12.80;10.10;;;23.50;97.80;;;;;;5053571;28;20040;-84
2021/09/05 09:16:41;;;;;;;15.25;10.25;;;23.60;97.80;;;;;;5054736;28;20025;-84
2021/09/05 09:19:07;;;;;;;14.52;10.68;;;23.60;97.70;;;;;;5036824;28;20086;-84
2021/09/05 09:21:40;;;;;;;13.35;10.00;;;23.50;97.60;;;;;;5053331;28;20059;-84
2021/09/05 09:24:22;;;;;;;11.55;9.60;;;23.50;97.60;;;;;;5053466;28;20052;-83
2021/09/05 09:27:05;;;;;;;11.73;9.18;;;23.50;97.50;;;;;;5051616;28;20024;-83
2021/09/05 09:29:33;;;;;;;12.65;8.75;;;23.50;97.30;;;;;;5054678;28;20031;-84
2021/09/05 09:32:07;;;;;;;11.70;8.73;;;23.60;97.30;;;;;;5052288;28;20043;-83
2021/09/05 09:34:41;;;;;;;11.43;8.80;;;23.50;97.20;;;;;;5053948;28;20021;-83
2021/09/05 09:37:19;;;;;;;10.95;8.13;;;23.50;97.20;;;;;;5053566;28;20029;-82
2021/09/05 09:39:50;;;;;;;10.63;7.70;;;23.60;97.20;;;;;;5053061;28;20467;-83
2021/09/05 09:42:36;;;;;;;10.75;8.40;;;23.60;97.10;;;;;;5053412;28;20025;-82
2021/09/05 09:45:11;;;;;;;12.25;8.90;;;23.60;97.10;;;;;;5054206;28;20063;-82
2021/09/05 09:47:48;;;;;;;10.60;7.90;;;23.60;97.00;;;;;;5054231;28;20024;-83
2021/09/05 09:50:16;;;;;;;9.82;7.75;;;23.60;97.00;;;;;;5051154;28;20017;-83
2021/09/05 09:52:45;;;;;;;11.50;7.20;;;23.60;96.90;;;;;;5053701;28;20025;-82
2021/09/05 09:55:11;;;;;;;8.85;6.85;;;23.60;96.90;;;;;;5053434;28;20021;-83
2021/09/05 09:57:37;;;;;;;9.65;7.20;;;23.60;96.90;;;;;;5053315;28;20030;-83
2021/09/05 10:00:04;;;;;;;10.65;7.15;;;23.60;96.90;;;;;;5052916;28;20040;-82
2021/09/05 10:02:37;;;;;;;8.85;7.03;;;23.60;96.90;;;;;;5054251;28;20051;-82
2021/09/05 10:05:03;;;;;;;9.98;7.22;;;23.70;96.80;;;;;;5052910;28;20105;-82
2021/09/05 10:07:30;;;;;;;9.07;6.70;;;23.70;96.80;;;;;;5054005;28;20033;-85
2021/09/05 10:09:59;;;;;;;9.27;6.78;;;23.70;96.70;;;;;;5053060;28;20067;-83
2021/09/05 10:12:25;;;;;;;7.93;6.13;;;23.70;96.60;;;;;;5053607;28;20159;-82
2021/09/05 10:14:52;;;;;;;8.50;6.68;;;23.70;96.60;;;;;;5035848;28;20060;-81
2021/09/05 10:17:20;;;;;;;9.65;6.47;;;23.70;96.50;;;;;;5052769;28;20024;-82
2021/09/05 10:19:47;;;;;;;8.52;6.15;;;23.70;96.50;;;;;;5053750;28;20049;-82
2021/09/05 10:22:16;;;;;;;9.45;6.80;;;23.70;96.40;;;;;;5053916;28;20041;-83
2021/09/05 10:24:49;;;;;;;8.45;6.07;;;23.70;96.40;;;;;;5053479;28;20028;-83
2021/09/05 10:27:15;;;;;;;7.50;6.10;;;23.70;96.40;;;;;;5052947;28;20032;-82
2021/09/05 10:30:09;;;;;;;10.18;6.47;;;23.70;96.30;;;;;;5052195;28;20032;-83
2021/09/05 10:32:46;;;;;;;8.38;6.45;;;23.70;96.30;;;;;;5052273;28;20013;-83
2021/09/05 10:35:38;;;;;;;6.82;5.88;;;23.70;96.30;;;;;;5052254;28;20076;-83
2021/09/05 10:38:10;;;;;;;7.80;5.90;;;23.70;96.30;;;;;;5053317;28;20031;-83
2021/09/05 10:41:05;;;;;;;8.50;6.38;;;23.70;96.30;;;;;;5053526;28;20471;-82
2021/09/05 10:43:50;;;;;;;9.30;6.85;;;23.70;96.40;;;;;;5052793;28;20035;-82
2021/09/05 10:46:21;;;;;;;9.25;6.55;;;23.70;96.40;;;;;;5052211;28;20059;-82
2021/09/05 10:48:54;;;;;;;8.90;6.03;;;23.70;96.40;;;;;;5051806;28;20083;-83
2021/09/05 10:51:27;;;;;;;9.25;6.47;;;23.70;96.50;;;;;;5052055;28;20111;-82
2021/09/05 10:53:54;;;;;;;8.15;6.13;;;23.70;96.40;;;;;;5053059;28;20123;-83
2021/09/05 10:56:25;;;;;;;8.57;6.43;;;23.70;96.40;;;;;;5053274;28;20036;-82
2021/09/05 10:59:05;;;;;;;8.20;6.35;;;23.70;96.40;;;;;;5052952;28;20028;-83
2021/09/05 11:01:46;;;;;;;8.63;6.13;;;23.70;96.50;;;;;;5051918;28;20021;-83
2021/09/05 11:04:12;;;;;;;10.65;6.90;;;23.70;96.60;;;;;;5052944;28;20489;-82
2021/09/05 11:06:40;;;;;;;7.68;6.32;;;23.70;96.60;;;;;;5053621;28;20104;-82
2021/09/05 11:09:24;;;;;;;6.80;5.63;;;23.80;96.70;;;;;;5054196;28;20021;-82
2021/09/05 11:12:00;;;;;;;8.65;6.18;;;23.80;96.70;;;;;;5053426;28;20025;-82
2021/09/05 11:14:34;;;;;;;8.80;6.40;;;23.70;96.80;;;;;;5051595;28;20033;-82
2021/09/05 11:17:27;;;;;;;7.75;6.22;;;23.80;96.80;;;;;;5052814;28;20025;-82
2021/09/05 11:20:02;;;;;;;9.07;6.43;;;23.80;96.80;;;;;;5051194;28;20479;-83
2021/09/05 11:22:46;;;;;;;8.45;6.10;;;23.80;96.80;;;;;;5052905;28;20043;-83
2021/09/05 11:25:22;;;;;;;7.20;5.55;;;23.80;96.70;;;;;;5052906;28;20017;-81
2021/09/05 11:28:03;;;;;;;8.38;6.43;;;23.80;96.70;;;;;;5051391;28;20025;-83
2021/09/05 11:30:32;;;;;;;9.02;6.20;;;23.80;96.70;;;;;;5052772;28;20053;-84
2021/09/05 11:33:04;;;;;;;6.90;5.85;;;23.80;96.60;;;;;;5052648;28;20021;-82
2021/09/05 11:35:41;;;;;;;7.82;5.85;;;23.80;96.60;;;;;;5051601;28;20028;-84
2021/09/05 11:38:07;;;;;;;7.57;6.20;;;23.80;96.60;;;;;;5052259;28;20079;-84
2021/09/05 11:40:41;;;;;;;8.57;6.30;;;23.80;96.60;;;;;;5055593;28;20104;-83
2021/09/05 11:43:07;;;;;;;7.17;5.77;;;23.80;96.60;;;;;;5056778;28;20021;-83
2021/09/05 11:45:38;;;;;;;8.75;5.80;;;23.80;96.60;;;;;;5039090;28;20591;-83
2021/09/05 11:48:05;;;;;;;8.93;6.25;;;23.80;96.70;;;;;;5056160;28;20052;-83
2021/09/05 11:50:37;;;;;;;7.32;5.20;;;23.80;96.60;;;;;;5055347;28;20451;-84
2021/09/05 11:53:04;;;;;;;6.88;5.50;;;23.80;96.60;;;;;;5055212;28;20039;-83
2021/09/05 11:55:30;;;;;;;7.90;5.43;;;23.80;96.60;;;;;;5052410;28;20041;-84
2021/09/05 11:58:02;;;;;;;7.15;5.68;;;23.80;96.60;;;;;;5056046;28;20068;-84
2021/09/05 12:00:33;;;;;;;9.13;5.95;;;23.80;96.70;;;;;;5056696;28;20044;-83
2021/09/05 12:03:04;;;;;;;7.55;5.45;;;23.80;96.70;;;;;;5054976;28;20413;-83
2021/09/05 12:05:30;;;;;;;8.68;6.03;;;23.80;96.70;;;;;;5056508;28;20025;-83
2021/09/05 12:07:59;;;;;;;9.38;5.43;;;23.80;96.70;;;;;;5054914;28;20071;-83
2021/09/05 12:10:26;;;;;;;6.18;5.25;;;23.80;96.70;;;;;;5056254;28;20108;-83
2021/09/05 12:13:10;;;;;;;6.90;5.60;;;23.80;96.80;;;;;;5055563;28;20078;-85
2021/09/05 12:15:47;;;;;;;9.30;5.82;;;23.80;96.80;;;;;;5054800;28;20557;-84
2021/09/05 12:18:22;;;;;;;5.65;5.00;;;23.80;96.80;;;;;;5055364;28;20082;-83
2021/09/05 12:20:58;;;;;;;6.30;5.47;;;23.80;96.90;;;;;;5055727;28;20086;-83
2021/09/05 12:23:28;;;;;;;9.63;5.53;;;23.90;96.90;;;;;;5055665;28;20017;-82
2021/09/05 12:25:57;;;;;;;7.20;5.57;;;23.80;96.90;;;;;;5055583;28;20017;-86
2021/09/05 12:28:25;;;;;;;8.85;5.25;;;23.80;96.90;;;;;;5056045;28;20455;-84
2021/09/05 12:30:56;;;;;;;6.68;5.43;;;23.90;97.00;;;;;;5056159;28;20108;-83
2021/09/05 12:33:28;;;;;;;6.80;5.35;;;23.90;97.00;;;;;;5054924;28;20418;-83
2021/09/05 12:35:57;;;;;;;6.97;5.70;;;23.90;97.00;;;;;;5054705;28;20451;-84
2021/09/05 12:38:30;;;;;;;7.00;5.80;;;23.90;97.00;;;;;;5054442;28;20029;-83
2021/09/05 12:41:14;;;;;;;8.43;6.00;;;23.90;97.00;;;;;;5055798;28;20024;-84